• Join FlightAware (Why Join?)
  • Login
  • US Flag 
04:14PM EDT


 

Airport Tracker/Info


-or-


 

Live Flight TrackerFlight Track Log ✈ SWA3247 ✈ 24-Jun-2013 ✈ KLAS - KALB

Flight Track Log - Related Links

Times and Time Zones

All times are in EDT time to prevent confusion due to time zone crossing. See the SWA3247 flight status page for this flight to view local times or setup timezone preferences in your user account.

Time Position Orientation Groundspeed Altitude Reporting Facility
EDT Latitude Longitude Course Direction KTS MPH feet Rate Location/Type
09:00PM 36.0767 -115.1706 270° West 160 184 3,500  Level Los Angeles Center
09:00PM 36.0764 -115.2292 270° West 198 228 5,000 2,220 Climbing Los Angeles Center
09:02PM 36.1156 -115.2908 308° West 254 292 8,100 2,880 Climbing Los Angeles Center
09:03PM 36.1733 -115.2481 31° Northeast 274 315 11,200 1,980 Climbing Los Angeles Center
09:04PM 36.1961 -115.1039 79° East 346 398 12,700 1,740 Climbing Los Angeles Center
09:05PM 36.1975 -114.9731 89° East 377 434 15,300 2,340 Climbing Los Angeles Center
09:06PM 36.1986 -114.8331 89° East 403 464 17,600 2,220 Climbing Los Angeles Center
09:07PM 36.1989 -114.6883 90° East 417 480 19,900 2,040 Climbing Los Angeles Center
09:08PM 36.1961 -114.5361 91° East 439 505 21,900 1,800 Climbing Los Angeles Center
09:09PM 36.1936 -114.3786 91° East 454 522 23,700 1,860 Climbing Los Angeles Center
09:10PM 36.1978 -114.1831 88° East 472 543 25,800 1,800 Climbing Los Angeles Center
09:11PM 36.2206 -114.0181 80° East 484 557 27,500 1,500 Climbing Los Angeles Center
09:12PM 36.2397 -113.8519 82° East 487 560 29,000 1,320 Climbing Los Angeles Center
09:13PM 36.2589 -113.6803 82° East 500 575 30,300 1,320 Climbing Los Angeles Center
09:14PM 36.2792 -113.5061 82° East 510 587 31,800 1,500 Climbing Los Angeles Center
09:15PM 36.2997 -113.3325 82° East 510 587 33,400 1,500 Climbing Los Angeles Center
09:16PM 36.3358 -113.1536 76° East 504 580 35,000 1,380 Climbing Los Angeles Center
09:17PM 36.3958 -112.9989 64° Northeast 499 574 36,300 960 Climbing Los Angeles Center
09:18PM 36.4536 -112.8425 65° Northeast 500 575 37,000 300 Climbing Los Angeles Center
09:19PM 36.5239 -112.6519 65° Northeast 507 583 37,000  Level Los Angeles Center
09:20PM 36.5819 -112.4928 66° East 507 583 37,000  Level Los Angeles Center
09:21PM 36.6400 -112.3344 65° Northeast 507 583 37,000  Level Los Angeles Center
09:22PM 36.6972 -112.1764 66° East 504 580 37,000  Level Los Angeles Center
09:23PM 36.7553 -112.0183 65° Northeast 503 579 37,000  Level Los Angeles Center
09:24PM 36.8117 -111.8594 66° East 503 579 37,000  Level Los Angeles Center
09:25PM 36.8686 -111.7003 66° East 505 581 37,000  Level Los Angeles Center
09:27PM 36.9939 -111.3500 65° Northeast 505 581 37,000  Level Los Angeles Center
09:28PM 36.9398 -111.4514 65° Northeast  Level FlightAware Approximate
09:29PM 37.0708 -111.1269 67° East 504 580 37,000  Level Denver Center
09:31PM 37.1817 -110.8042 67° East 507 583 37,000  Level Denver Center
09:32PM 37.2389 -110.6419 66° East 510 587 37,000  Level Denver Center
09:33PM 37.2936 -110.4803 67° East 507 583 37,000  Level Denver Center
09:34PM 37.3589 -110.2875 67° East 503 579 37,000  Level Denver Center
09:35PM 37.4139 -110.1247 67° East 504 580 37,000  Level Denver Center
09:36PM 37.4644 -109.9711 67° East 500 575 37,000  Level Denver Center
09:37PM 37.5169 -109.8186 66° East 497 572 37,000  Level Denver Center
09:38PM 37.5769 -109.6386 67° East 499 574 37,000  Level Denver Center
09:39PM 37.6272 -109.4850 68° East 496 571 37,000  Level Denver Center
09:40PM 37.6869 -109.3044 67° East 499 574 37,000  Level Denver Center
09:41PM 37.7381 -109.1492 67° East 498 573 37,000  Level Denver Center
09:42PM 37.7967 -108.9675 68° East 500 575 37,000 360 Level Denver Center
09:43PM 37.8489 -108.8147 67° East 495 570 37,800 780 Climbing Denver Center
09:44PM 37.9017 -108.6650 66° East 489 563 38,600 540 Climbing Denver Center
09:45PM 37.9639 -108.4872 66° East 491 565 39,000 180 Climbing Denver Center
09:46PM 38.0172 -108.3328 66° East 496 571 39,000  Level Denver Center
09:47PM 38.0786 -108.1514 67° East 499 574 39,000  Level Denver Center
09:48PM 38.1258 -107.9897 70° East 506 582 39,000  Level Denver Center
09:49PM 38.1819 -107.8056 69° East 504 580 39,000  Level Denver Center
09:50PM 38.2306 -107.6472 69° East 503 579 39,000  Level Denver Center
09:52PM 38.2800 -107.4889 68° East 504 580 39,000  Level Denver Center
09:53PM 38.3353 -107.3033 69° East 505 581 39,000  Level Denver Center
09:54PM 38.3883 -107.1294 69° East 506 582 39,000  Level Denver Center
09:55PM 38.4372 -106.9633 69° East 502 578 39,000  Level Denver Center
09:56PM 38.4864 -106.7972 69° East 503 579 39,000  Level Denver Center
09:57PM 38.5350 -106.6308 69° East 502 578 39,000  Level Denver Center
09:58PM 38.5836 -106.4644 69° East 501 577 39,000  Level Denver Center
09:59PM 38.6303 -106.3000 70° East 496 571 39,000  Level Denver Center
10:00PM 38.6836 -106.1206 69° East 497 572 39,000  Level Denver Center
10:01PM 38.7308 -105.9547 70° East 497 572 39,000  Level Denver Center
10:02PM 38.7881 -105.7558 70° East 498 573 39,000  Level Denver Center
10:03PM 38.8256 -105.6217 70° East 500 575 39,000  Level Denver Center
10:04PM 38.8817 -105.4208 70° East 501 577 39,000  Level Denver Center
10:05PM 38.9275 -105.2533 71° East 501 577 39,000  Level Denver Center
10:06PM 38.9747 -105.0872 70° East 499 574 39,000  Level Denver Center
10:07PM 39.0203 -104.9231 70° East 495 570 39,000  Level Denver Center
10:08PM 39.0656 -104.7564 71° East 496 571 39,000  Level Denver Center
10:09PM 39.1203 -104.5589 70° East 493 567 39,000  Level Denver Center
10:10PM 39.1642 -104.3950 71° East 491 565 39,000  Level Denver Center
10:11PM 39.2078 -104.2311 71° East 489 563 39,000  Level Denver Center
10:12PM 39.2511 -104.0686 71° East 483 556 39,000  Level Denver Center
10:13PM 39.2933 -103.9081 71° East 477 549 39,000  Level Denver Center
10:14PM 39.3453 -103.7119 71° East 483 556 39,000  Level Denver Center
10:15PM 39.3903 -103.5453 71° East 492 566 39,000  Level Denver Center
10:16PM 39.4331 -103.3783 72° East 492 566 39,000  Level Denver Center
10:17PM 39.4747 -103.2100 72° East 493 567 39,000  Level Denver Center
10:18PM 39.5189 -103.0422 71° East 494 568 39,000  Level Denver Center
10:19PM 39.5700 -102.8431 72° East 488 562 39,000  Level Denver Center
10:20PM 39.6111 -102.6764 72° East 488 562 39,000  Level Denver Center
10:21PM 39.6525 -102.5119 72° East 483 556 39,000  Level Denver Center
10:22PM 39.6922 -102.3547 72° East 481 554 39,000  Level Denver Center
10:23PM 39.7375 -102.1711 72° East 478 550 39,000  Level Denver Center
10:24PM 39.7756 -102.0150 72° East 473 544 39,000  Level Denver Center
10:26PM 39.8197 -101.8319 73° East 476 548 39,000  Level Denver Center
10:27PM 39.8575 -101.6767 72° East 473 544 39,000  Level Denver Center
10:28PM 39.9003 -101.4953 73° East 472 543 39,000  Level Denver Center
10:29PM 39.9386 -101.3403 72° East 471 542 39,000  Level Denver Center
10:30PM 39.9817 -101.1564 73° East 475 547 39,000  Level Denver Center
10:31PM 40.0186 -100.9983 73° East 478 550 39,000  Level Denver Center
10:32PM 40.0617 -100.8117 73° East 484 557 39,000  Level Denver Center
10:33PM 40.0994 -100.6506 73° East 487 560 39,000  Level Denver Center
10:34PM 40.1422 -100.4614 73° East 488 562 39,000  Level Denver Center
10:35PM 40.1794 -100.3000 73° East 487 560 39,000  Level Denver Center
10:36PM 40.2219 -100.1108 74° East 487 560 39,000  Level Denver Center
10:37PM 40.2578 -99.9522 73° East 479 551 39,000  Level Denver Center
10:38PM 40.2989 -99.7683 74° East 477 549 39,000  Level Denver Center
10:39PM 40.3353 -99.6008 74° East 478 550 39,000  Level Denver Center
10:40PM 40.3731 -99.4328 74° East 481 554 39,000  Level Denver Center
10:41PM 40.4028 -99.2967 74° East 485 558 39,000  Level Minneapolis Center
10:42PM 40.4394 -99.1258 74° East 488 562 39,000  Level Minneapolis Center
10:43PM 40.4747 -98.9569 75° East 485 558 39,000  Level Minneapolis Center
10:44PM 40.5189 -98.7508 74° East 490 564 39,000  Level Minneapolis Center
10:45PM 40.5556 -98.5767 74° East 496 571 39,000  Level Minneapolis Center
10:46PM 40.5914 -98.4006 75° East 501 577 39,000  Level Minneapolis Center
10:47PM 40.6353 -98.1894 75° East 502 578 39,000  Level Minneapolis Center
10:48PM 40.6719 -98.0139 75° East 501 577 39,000  Level Minneapolis Center
10:49PM 40.7069 -97.8353 75° East 504 580 39,000  Level Minneapolis Center
10:50PM 40.7428 -97.6569 75° East 506 582 39,000  Level Minneapolis Center
10:51PM 40.7856 -97.4414 75° East 508 585 39,000  Level Minneapolis Center
10:52PM 40.8200 -97.2703 75° East 511 588 39,000  Level Minneapolis Center
10:53PM 40.8556 -97.0897 75° East 510 587 39,000  Level Minneapolis Center
10:54PM 40.8825 -96.9489 76° East 503 579 39,000  Level Minneapolis Center
10:55PM 40.9231 -96.7403 76° East 492 566 39,000  Level Minneapolis Center
10:56PM 40.9431 -96.6017 79° East 486 559 39,000  Level Minneapolis Center
10:57PM 40.9750 -96.3600 80° East 480 552 39,000  Level Minneapolis Center
10:58PM 40.9994 -96.1886 79° East 478 550 39,000  Level Minneapolis Center
10:59PM 41.0244 -96.0183 79° East 478 550 39,000  Level Minneapolis Center
11:00PM 41.0494 -95.8456 79° East 482 555 39,000  Level Minneapolis Center
11:02PM 41.0733 -95.6711 80° East 485 558 39,000  Level Minneapolis Center
11:03PM 41.0986 -95.4958 79° East 489 563 39,000  Level Minneapolis Center
11:04PM 41.1281 -95.2850 79° East 488 562 39,000  Level Minneapolis Center
11:05PM 41.1528 -95.1092 79° East 487 560 39,000  Level Minneapolis Center
11:06PM 41.1761 -94.9356 80° East 483 556 39,000  Level Minneapolis Center
11:07PM 41.1994 -94.7650 80° East 475 547 39,000  Level Minneapolis Center
11:08PM 41.2214 -94.5953 80° East 470 541 39,000  Level Minneapolis Center
11:09PM 41.2433 -94.4261 80° East 467 537 39,000  Level Minneapolis Center
11:10PM 41.2653 -94.2564 80° East 467 537 39,000  Level Minneapolis Center
11:11PM 41.2878 -94.0775 80° East 460 529 39,000  Level Minneapolis Center
11:12PM 41.3081 -93.9111 81° East 459 528 39,000  Level Minneapolis Center
11:13PM 41.3294 -93.7450 80° East 459 528 39,000  Level Minneapolis Center
11:14PM 41.3508 -93.5789 80° East 458 527 39,000  Level Minneapolis Center
11:15PM 41.3717 -93.4119 81° East 459 528 39,000  Level Minneapolis Center
11:16PM 41.3953 -93.2131 81° East 458 527 39,000  Level Minneapolis Center
11:17PM 41.4147 -93.0461 81° East 458 527 39,000  Level Minneapolis Center
11:18PM 41.4347 -92.8803 81° East 456 525 39,000  Level Minneapolis Center
11:19PM 41.4536 -92.7125 81° East 459 528 39,000  Level Minneapolis Center
11:20PM 41.4719 -92.5450 82° East 457 526 39,000  Level Chicago Center
11:21PM 41.4906 -92.3819 81° East 451 519 39,000  Level Chicago Center
11:22PM 41.5075 -92.2303 81° East 453 521 39,000  Level Chicago Center
11:23PM 41.5253 -92.0664 82° East 452 520 39,000  Level Chicago Center
11:24PM 41.5475 -91.8708 81° East 450 518 39,000  Level Chicago Center
11:25PM 41.5644 -91.7081 82° East 449 517 39,000  Level Chicago Center
11:26PM 41.5808 -91.5436 82° East 451 519 39,000  Level Chicago Center
11:27PM 41.5992 -91.3783 82° East 455 524 39,000  Level Chicago Center
11:28PM 41.6158 -91.2106 82° East 459 528 39,000  Level Chicago Center
11:29PM 41.6314 -91.0447 83° East 458 527 39,000  Level Chicago Center
11:30PM 41.6519 -90.8439 82° East 459 528 39,000  Level Chicago Center
11:31PM 41.6683 -90.6756 83° East 461 531 39,000  Level Chicago Center
11:32PM 41.6850 -90.5000 83° East 454 522 39,000  Level Chicago Center
11:33PM 41.7003 -90.3314 83° East 455 524 39,000  Level Chicago Center
11:34PM 41.7156 -90.1656 83° East 448 516 39,000  Level Chicago Center
11:35PM 41.7311 -89.9972 83° East 453 521 39,000  Level Chicago Center
11:36PM 41.7461 -89.8314 83° East 450 518 39,000  Level Chicago Center
11:37PM 41.7619 -89.6658 83° East 449 517 39,000  Level Chicago Center
11:38PM 41.7756 -89.5025 84° East 446 513 39,000  Level Chicago Center
11:39PM 41.7900 -89.3361 83° East 450 518 39,000  Level Chicago Center
11:40PM 41.8028 -89.1711 84° East 448 516 39,000  Level Chicago Center
11:41PM 41.8178 -88.9714 84° East 450 518 39,000  Level Chicago Center
11:42PM 41.8314 -88.8047 84° East 451 519 39,000  Level Chicago Center
11:43PM 41.8450 -88.6356 84° East 455 524 39,000  Level Chicago Center
11:44PM 41.8581 -88.4678 84° East 453 521 39,000  Level Chicago Center
11:45PM 41.8717 -88.2953 84° East 461 531 39,000  Level Chicago Center
11:46PM 41.8847 -88.1250 84° East 459 528 39,000  Level Chicago Center
11:47PM 41.8958 -87.9531 85° East 461 531 39,000  Level Chicago Center
11:48PM 41.9086 -87.7794 84° East 466 536 39,000  Level Chicago Center
11:49PM 41.9200 -87.6067 85° East 466 536 39,000  Level Chicago Center
11:51PM 41.9336 -87.3992 85° East 466 536 39,000  Level Chicago Center
11:52PM 41.9467 -87.2278 84° East 464 534 39,000  Level Chicago Center
11:53PM 41.9567 -87.0544 86° East 466 536 39,000  Level Chicago Center
11:54PM 41.9675 -86.8819 85° East 466 536 39,000  Level Chicago Center
11:55PM 41.9778 -86.7092 85° East 467 537 39,000  Level Chicago Center
11:56PM 41.9881 -86.5517 85° East 463 533 39,000  Level Chicago Center
11:57PM 41.9969 -86.3808 86° East 458 527 39,000  Level Chicago Center
11:58PM 42.0092 -86.1794 85° East 452 520 39,000  Level Chicago Center
11:59PM 42.0183 -86.0131 86° East 448 516 39,000  Level Chicago Center
12:00AM 42.0272 -85.8600 85° East 445 512 39,000  Level Chicago Center
12:01AM 42.0356 -85.6942 86° East 447 514 39,000  Level Chicago Center
12:02AM 42.0442 -85.5286 86° East 448 516 39,000  Level Chicago Center
12:03AM 42.0497 -85.3631 87° East 446 513 39,000  Level Chicago Center
12:04AM 42.0636 -85.1586 85° East 462 532 39,000  Level Chicago Center
12:05AM 42.0711 -84.9919 86° East 453 521 39,000  Level Chicago Center
12:06AM 42.0781 -84.8233 87° East 453 521 39,000  Level Chicago Center
12:07AM 42.0942 -84.6553 83° East 456 525 39,000  Level Chicago Center
12:08AM 42.1122 -84.4872 82° East 457 526 39,000  Level Chicago Center
12:09AM 42.1311 -84.3197 81° East 456 525 39,000  Level Chicago Center
12:09AM 42.1428 -84.1986 83° East 447 514 39,000  Level Cleveland Center
12:10AM 42.1583 -84.0286 83° East 447 514 39,000  Level Cleveland Center
12:11AM 42.1758 -83.8614 82° East 447 514 39,000  Level Cleveland Center
12:12AM 42.1908 -83.6914 83° East 447 514 39,000  Level Cleveland Center
12:13AM 42.2078 -83.5294 82° East 472 543 39,000  Level Cleveland Center
12:14AM 42.2272 -83.3369 82° East 472 543 39,000  Level Cleveland Center
12:15AM 42.2411 -83.1775 83° East 472 543 39,000  Level Cleveland Center
12:16AM 42.2575 -83.0069 83° East 472 543 39,000  Level Cleveland Center
12:17AM 42.2756 -82.8394 82° East 460 529 39,000  Level Cleveland Center
12:18AM 42.2911 -82.6686 83° East 460 529 39,000  Level Cleveland Center
12:19AM 42.3067 -82.4950 83° East 460 529 39,000  Level Cleveland Center
12:20AM 42.3200 -82.3242 84° East 460 529 39,000  Level Cleveland Center
12:21AM 42.3372 -82.1364 83° East 460 529 39,000  Level Cleveland Center
12:22AM 42.3517 -81.9822 83° East 460 529 39,000  Level Cleveland Center
12:23AM 42.3661 -81.8083 84° East 466 536 39,000  Level Cleveland Center
12:24AM 42.3803 -81.6372 84° East 458 527 39,000  Level Cleveland Center
12:25AM 42.3964 -81.4631 83° East 463 533 39,000  Level Cleveland Center
12:26AM 42.4081 -81.2919 85° East 463 533 39,000  Level Cleveland Center
12:27AM 42.4236 -81.1064 83° East 458 527 39,000  Level Cleveland Center
12:28AM 42.4367 -80.9319 84° East 463 533 39,000  Level Cleveland Center
12:29AM 42.4497 -80.7606 84° East 463 533 39,000  Level Cleveland Center
12:30AM 42.4603 -80.5861 85° East 463 533 39,000  Level Cleveland Center
12:31AM 42.4725 -80.4142 84° East 463 533 39,000  Level Cleveland Center
12:32AM 42.4828 -80.2425 85° East 463 533 39,000  Level Cleveland Center
12:33AM 42.4986 -80.0678 83° East 463 533 39,000  Level Cleveland Center
12:34AM 42.5125 -79.9017 83° East 450 518 39,000  Level Cleveland Center
12:35AM 42.5217 -79.7297 86° East 450 518 39,000  Level Cleveland Center
12:36AM 42.5308 -79.5575 86° East 455 524 39,000  Level Cleveland Center
12:37AM 42.5436 -79.3856 84° East 455 524 39,000  Level Cleveland Center
12:38AM 42.5542 -79.2078 85° East 461 531 39,000  Level Cleveland Center
12:39AM 42.5644 -79.0356 85° East 461 531 39,000  Level Cleveland Center
12:40AM 42.5747 -78.8661 85° East 461 531 39,000  Level Cleveland Center
12:41AM 42.5822 -78.6911 87° East 461 531 39,000  Level Cleveland Center
12:42AM 42.5919 -78.5217 85° East 461 531 39,000  Level Cleveland Center
12:43AM 42.6011 -78.3406 86° East 461 531 39,000  Level Cleveland Center
12:44AM 42.6100 -78.1683 86° East 461 531 39,000  Level Cleveland Center
12:45AM 42.6189 -77.9986 86° East 461 531 39,000  Level Cleveland Center
12:46AM 42.6275 -77.8347 86° East 455 524 39,000  Level Cleveland Center
12:47AM 42.6361 -77.6761 86° East 455 524 39,000 -540 Level Cleveland Center
12:49AM 42.6478 -77.3725 87° East 485 558 37,500 -960 Descending Boston Center
12:50AM 42.6561 -77.1725 87° East 457 526 36,300 -1,080 Descending Boston Center
12:51AM 42.6633 -77.0008 87° East 452 520 35,400 -960 Descending Boston Center
12:52AM 42.6700 -76.8261 87° East 457 526 34,400 -960 Descending Boston Center
12:53AM 42.6769 -76.6458 87° East 465 535 33,500 -960 Descending Boston Center
12:54AM 42.6833 -76.4683 87° East 470 541 32,500 -960 Descending Boston Center
12:55AM 42.6894 -76.2906 87° East 470 541 31,600 -960 Descending Boston Center
12:56AM 42.6953 -76.1128 87° East 470 541 30,600 -1,080 Descending Boston Center
12:57AM 42.6842 -75.9369 95° East 475 547 29,500 -1,080 Descending Boston Center
12:58AM 42.6750 -75.7614 94° East 468 539 28,500 -1,020 Descending Boston Center
12:59AM 42.6672 -75.5944 94° East 457 526 27,500 -1,740 Descending Boston Center
01:00AM 42.6572 -75.4244 95° East 457 526 25,100 -2,400 Descending Boston Center
01:01AM 42.6489 -75.2603 94° East 444 511 22,700 -2,340 Descending Boston Center
01:02AM 42.6381 -75.1044 95° East 434 499 20,500 -2,220 Descending Boston Center
01:03AM 42.6311 -74.9547 94° East 414 476 18,300 -2,220 Descending Boston Center
01:04AM 42.6194 -74.8103 96° East 398 458 16,100 -2,280 Descending Boston Center
01:05AM 42.6156 -74.7028 93° East 372 428 14,500 -2,100 Descending Boston Center
01:06AM 42.6042 -74.5331 95° East 370 426 11,900 -1,740 Descending Boston Center
01:07AM 42.5978 -74.4172 94° East 341 392 10,800 -1,620 Descending Boston Center
01:08AM 42.5872 -74.3014 97° East 309 356 9,000 -1,980 Descending Boston Center
01:09AM 42.5792 -74.1600 94° East 314 361 6,600 -1,920 Descending Boston Center
01:10AM 42.5742 -74.0725 94° East 304 350 5,200 -1,440 Descending Boston Center
01:11AM 42.5656 -73.9511 95° East 289 333 4,000 -840 Descending Boston Center
01:12AM 42.5667 -73.8608 89° East 234 269 3,500 -780 Descending Boston Center
01:13AM 42.5944 -73.7967 60° Northeast 207 238 2,500 -840 Descending Boston Center
01:14AM 42.6464 -73.8006 357° North 180 207 1,900 -660 Descending Boston Center
01:15AM 42.6922 -73.8072 354° North 162 186 1,200 -780 Descending Boston Center
01:16AM 42.7361 -73.8083 359° North 143 165 400 -840 Descending Boston Center
01:21AM 42.7491 -73.8020 223° Southwest  Level Estimated